Soaring Guidance
Issued by NWS Reno, NV

Home | Current Version | Previous Version | Text Only | Print | Product List | Glossary On
Versions: 1 2 3 4 5 6 7 8 9 10 11 12 13 14
000
UXUS97 KREV 241450
SRGREV

SOARING FORECAST
NATIONAL WEATHER SERVICE - RENO NV
700 AM PST TUE JAN 24 2017

THIS SOARING FORECAST IS FOR THE EASTERN SIERRA AND WESTERN NEVADA
WITH SPECIFIC INDICES FOR THE GREATER RENO AREA.

THIS FORECAST IS PREPARED DAILY BY 700 AM AND IS NOT UPDATED.

FOR CURRENT FLIGHT CONDITIONS...FORECASTS...AND ADVISORIES...ACCESS
YOUR LOCAL BRIEFING OUTLET OR FLIGHT SERVICE STATION.

*******************************************************************
FORECASTED LOCAL INDICES FOR RENO:        TODAY     YESTERDAY
FORECASTED MAX TEMP AT RENO (DEG F).....     33          37
FORECASTED TRIGGER TEMPERATURE (DEG F)..     31          35
   EXCEEDED YESTERDAY BY 1455 PM PST
FORECASTED MAXIMUM ALTITUDE (FT MSL)....  10200        9100
FORECASTED SOARING INDEX (FPM)..........    426         333
FORECASTED K-INDEX.........VALID 18Z....     16          17
FORECASTED K-INDEX.........VALID 00Z....     12          24
FORECASTED LIFTED INDEX....VALID 18Z....      3           2
FORECASTED LIFTED INDEX....VALID 00Z....      4           1

AFTERNOON WINDS ALOFT FORECAST
MSL (FT) WIND/TEMP
9000  3314/-12
10000 3416/-13
12000 3620/-17
14000 1221/-21
16000 0623/-25
18000  127/-30
24000 3632/-42
30000 3553/-50
34000 3553/-49
39000 3336/-47

SLIDE MOUNTAIN DATA:
     DATE       TIME     TEMP  DEWPT   RH         WIND (MPH)
                        (F)   (F)           | DIR  SPEED GUST
2017-01-24    01:20       8     6     89    |        NA
2017-01-24    01:00       8     6     89    |
2017-01-24    00:50       8     6     89    |
2017-01-24    00:30       8     6     89    |

RENO TAF FORECAST:
KRNO 241130Z 2412/2512 VRB03KT P6SM SCT050 BKN070

CARSON CITY TAF FORECAST:
KCXP 241130Z 2412/2512 VRB03KT P6SM SCT050 BKN070

OUTLOOK FOR THE RENO-CARSON CITY-MINDEN AREA:
.WEDNESDAY...PARTLY CLOUDY. HIGHS 28 TO 33. LIGHT WINDS.

SUNRISE AND SUNSET
JANUARY 24 2017.......SUNRISE   713 AM PST   SUNSET   510 PM PST
JANUARY 25 2017.......SUNRISE   712 AM PST   SUNSET   511 PM PST


USA.gov is the U.S. government's official web portal to all federal, state and local government web resources and services.